Time;durP1;ratioP1;P1;durP2;ratioP2;P2;SDS_P1;SDS_P2;PMS_P1;PMS_P2;Temp;Humidity;BMP_temperature;BMP_pressure;BME280_temperature;BME280_humidity;BME280_pressure;Samples;Min_cycle;Max_cycle;Signal;HPM_P1;HPM_P2
2022/06/22 00:01:22;;;;;;;6.47;4.03;;;24.00;91.90;;;;;;6942910;28;20792;-78
2022/06/22 00:04:48;;;;;;;5.90;3.80;;;24.10;92.30;;;;;;6943605;28;20919;-77
2022/06/22 00:08:17;;;;;;;6.78;3.70;;;24.10;92.30;;;;;;6944548;28;20442;-78
2022/06/22 00:11:45;;;;;;;7.18;3.88;;;24.20;92.40;;;;;;6942596;28;20442;-78
2022/06/22 00:15:24;;;;;;;7.10;3.97;;;24.20;92.40;;;;;;6942993;28;20454;-77
2022/06/22 00:18:49;;;;;;;5.85;3.88;;;24.10;92.80;;;;;;6943643;28;20442;-79
2022/06/22 00:22:24;;;;;;;6.77;4.07;;;24.20;93.10;;;;;;6943101;28;20924;-80
2022/06/22 00:25:48;;;;;;;6.85;4.40;;;24.20;93.40;;;;;;6943250;28;20435;-77
2022/06/22 00:29:24;;;;;;;8.23;4.20;;;24.20;93.80;;;;;;6943834;28;20454;-77
2022/06/22 00:33:16;;;;;;;6.93;4.03;;;24.10;94.10;;;;;;6941508;28;20439;-79
2022/06/22 00:36:42;;;;;;;6.60;4.10;;;24.10;94.20;;;;;;6942712;28;20440;-77
2022/06/22 00:40:16;;;;;;;5.93;3.95;;;24.10;94.40;;;;;;6929068;28;20434;-77
2022/06/22 00:43:40;;;;;;;6.80;4.10;;;24.10;94.30;;;;;;6942367;28;20466;-78
2022/06/22 00:47:08;;;;;;;6.88;3.92;;;24.00;94.60;;;;;;6928085;28;20442;-78
2022/06/22 00:50:39;;;;;;;6.78;4.07;;;23.90;94.70;;;;;;6941749;28;20435;-78
2022/06/22 00:54:06;;;;;;;7.60;4.15;;;23.60;95.30;;;;;;6942654;28;20809;-78
2022/06/22 00:57:35;;;;;;;6.80;3.92;;;23.40;96.30;;;;;;6943538;28;20431;-78
2022/06/22 01:01:07;;;;;;;5.60;3.97;;;23.30;96.90;;;;;;6942661;28;20430;-79
2022/06/22 01:04:41;;;;;;;7.80;3.90;;;23.20;97.30;;;;;;6941781;28;20947;-79
2022/06/22 01:08:11;;;;;;;6.80;3.90;;;23.10;97.50;;;;;;6942130;28;20932;-80
2022/06/22 01:15:25;;;;;;;6.27;4.00;;;23.10;98.10;;;;;;6942494;28;20447;-81
2022/06/22 01:18:57;;;;;;;7.93;4.20;;;23.10;97.90;;;;;;6942290;28;20439;-78
2022/06/22 01:22:46;;;;;;;7.45;4.40;;;23.10;97.70;;;;;;6941976;28;20529;-80
2022/06/22 01:26:34;;;;;;;6.93;4.38;;;23.20;97.70;;;;;;6940697;28;20439;-77
2022/06/22 01:30:02;;;;;;;7.95;4.40;;;23.10;98.10;;;;;;6939374;28;20446;-77
2022/06/22 01:33:32;;;;;;;6.40;4.40;;;23.00;97.50;;;;;;6943831;28;20447;-77
2022/06/22 01:36:54;;;;;;;7.30;4.40;;;23.10;97.60;;;;;;6943816;28;20520;-79
2022/06/22 01:40:20;;;;;;;7.35;4.55;;;23.10;97.80;;;;;;6942153;28;20457;-79
2022/06/22 01:43:53;;;;;;;10.00;4.82;;;23.10;97.90;;;;;;6941740;28;20486;-78
2022/06/22 01:47:25;;;;;;;7.60;4.88;;;23.10;97.80;;;;;;6940776;28;20431;-78
2022/06/22 01:50:53;;;;;;;6.22;4.70;;;23.00;97.90;;;;;;6940743;28;20441;-80
2022/06/22 01:54:23;;;;;;;7.97;5.03;;;22.90;98.40;;;;;;6941004;28;20438;-79
2022/06/22 01:57:53;;;;;;;7.17;4.90;;;22.80;98.70;;;;;;6940275;28;20462;-78
2022/06/22 02:01:26;;;;;;;8.02;5.10;;;22.70;99.00;;;;;;6941457;28;20454;-80
2022/06/22 02:05:00;;;;;;;8.07;4.80;;;22.60;99.40;;;;;;6940516;28;20435;-80
2022/06/22 02:08:29;;;;;;;8.77;5.45;;;22.40;99.90;;;;;;6940182;28;20466;-80
2022/06/22 02:12:18;;;;;;;9.30;5.80;;;22.30;99.90;;;;;;6940415;28;20478;-81
2022/06/22 02:15:54;;;;;;;7.65;4.82;;;22.30;99.90;;;;;;6940481;28;20894;-78
2022/06/22 02:19:18;;;;;;;9.50;5.07;;;22.30;99.90;;;;;;6940358;28;20435;-80
2022/06/22 02:22:42;;;;;;;8.10;5.10;;;22.40;99.90;;;;;;6940223;28;20521;-78
2022/06/22 02:26:15;;;;;;;6.83;4.90;;;22.50;99.90;;;;;;6940563;28;20438;-78
2022/06/22 02:29:43;;;;;;;9.48;5.40;;;22.60;99.90;;;;;;6939793;28;20966;-80
2022/06/22 02:33:07;;;;;;;8.77;5.20;;;22.60;99.90;;;;;;6940157;28;20905;-79
2022/06/22 02:36:32;;;;;;;9.05;5.20;;;22.60;99.90;;;;;;6940587;28;20477;-78
2022/06/22 02:40:02;;;;;;;8.63;5.40;;;22.50;99.90;;;;;;6939678;28;20442;-80
2022/06/22 02:47:23;;;;;;;9.40;5.63;;;22.50;99.90;;;;;;6939500;28;20447;-80
2022/06/22 02:50:54;;;;;;;8.27;5.30;;;22.50;99.90;;;;;;6938620;28;20442;-78
2022/06/22 02:54:27;;;;;;;9.52;6.20;;;22.30;99.90;;;;;;6940383;28;20439;-79
2022/06/22 02:58:00;;;;;;;9.40;6.57;;;22.20;99.90;;;;;;6948083;28;20521;-80
2022/06/22 03:01:26;;;;;;;9.80;6.30;;;22.10;99.90;;;;;;6966491;28;20442;-79
2022/06/22 03:04:49;;;;;;;9.85;6.20;;;22.10;99.90;;;;;;6957227;28;20435;-78
2022/06/22 03:08:12;;;;;;;8.47;6.00;;;22.10;99.90;;;;;;6950511;28;20915;-79
2022/06/22 03:11:39;;;;;;;9.88;6.70;;;22.20;99.90;;;;;;6940564;28;20439;-79
2022/06/22 03:15:06;;;;;;;10.37;6.20;;;22.10;99.90;;;;;;6939745;28;20466;-79
2022/06/22 03:18:31;;;;;;;9.38;6.20;;;22.10;99.90;;;;;;6940015;28;20850;-78
2022/06/22 03:21:53;;;;;;;8.02;5.93;;;22.20;99.90;;;;;;6939365;28;20465;-79
2022/06/22 03:25:23;;;;;;;10.60;6.07;;;22.30;99.90;;;;;;6939812;28;20852;-81
2022/06/22 03:28:52;;;;;;;9.00;6.25;;;22.30;99.90;;;;;;6938989;28;20439;-79
2022/06/22 03:32:25;;;;;;;11.00;6.15;;;22.40;99.90;;;;;;6939162;28;20438;-78
2022/06/22 03:35:51;;;;;;;9.73;6.18;;;22.40;99.90;;;;;;6939420;28;20494;-77
2022/06/22 03:39:18;;;;;;;8.95;6.30;;;22.40;99.90;;;;;;6940105;28;20441;-80
2022/06/22 03:42:47;;;;;;;9.30;6.38;;;22.40;99.90;;;;;;6939145;28;20434;-80
2022/06/22 03:46:15;;;;;;;9.30;6.27;;;22.40;99.90;;;;;;6937935;28;20445;-80
2022/06/22 03:49:45;;;;;;;8.15;6.00;;;22.40;99.90;;;;;;6939602;28;20469;-80
2022/06/22 03:53:14;;;;;;;8.00;5.93;;;22.40;99.90;;;;;;6931964;28;20536;-78
2022/06/22 03:56:42;;;;;;;10.23;6.60;;;22.40;99.90;;;;;;6938563;28;20478;-79
2022/06/22 04:00:08;;;;;;;9.40;6.70;;;22.50;99.90;;;;;;6937923;28;21215;-78
2022/06/22 04:03:30;;;;;;;9.70;6.47;;;22.30;99.90;;;;;;6937933;28;20916;-78
2022/06/22 04:06:55;;;;;;;9.98;6.50;;;22.30;99.90;;;;;;6937733;28;20435;-78
2022/06/22 04:10:38;;;;;;;7.93;6.03;;;22.40;99.90;;;;;;6938549;28;20442;-79
2022/06/22 04:14:06;;;;;;;9.55;5.97;;;22.40;99.90;;;;;;6943723;28;20498;-78
2022/06/22 04:17:34;;;;;;;8.70;6.00;;;22.40;99.90;;;;;;6944912;28;20453;-79
2022/06/22 04:21:03;;;;;;;8.65;5.80;;;22.40;99.90;;;;;;6945026;28;20426;-79
2022/06/22 04:24:32;;;;;;;8.73;6.22;;;22.50;99.90;;;;;;6944701;28;20558;-80
2022/06/22 04:27:57;;;;;;;9.98;5.90;;;22.50;99.90;;;;;;6944656;28;20474;-79
2022/06/22 04:31:25;;;;;;;8.80;6.30;;;22.50;99.90;;;;;;6944510;28;20419;-79
2022/06/22 04:34:54;;;;;;;8.80;6.50;;;22.50;99.90;;;;;;6944488;28;20876;-80
2022/06/22 04:38:22;;;;;;;9.40;6.40;;;22.50;99.90;;;;;;6944342;28;20469;-79
2022/06/22 04:41:47;;;;;;;8.77;6.22;;;22.50;99.90;;;;;;6944084;28;20434;-79
2022/06/22 04:45:27;;;;;;;9.02;6.10;;;22.50;99.90;;;;;;6944402;28;20431;-78
2022/06/22 04:48:51;;;;;;;10.00;6.70;;;22.60;99.90;;;;;;6943890;28;20488;-79
2022/06/22 04:52:18;;;;;;;11.00;7.00;;;22.50;99.90;;;;;;6943730;28;20439;-80
2022/06/22 04:55:41;;;;;;;7.72;6.40;;;22.50;99.90;;;;;;6944218;28;20431;-79
2022/06/22 04:59:07;;;;;;;8.65;6.80;;;22.50;99.90;;;;;;6943775;28;20935;-79
2022/06/22 05:02:31;;;;;;;9.38;6.53;;;22.30;99.90;;;;;;6942957;28;20431;-80
2022/06/22 05:05:55;;;;;;;10.23;6.65;;;22.10;99.90;;;;;;6943714;28;20427;-80
2022/06/22 05:09:26;;;;;;;10.10;6.93;;;22.10;99.90;;;;;;6943542;28;20937;-79
2022/06/22 05:12:56;;;;;;;11.70;7.10;;;22.30;99.90;;;;;;6943433;28;20926;-79
2022/06/22 05:16:24;;;;;;;10.10;7.20;;;22.40;99.90;;;;;;6943580;28;20908;-80
2022/06/22 05:19:50;;;;;;;11.65;7.13;;;22.40;99.90;;;;;;6943252;28;20458;-80
2022/06/22 05:23:13;;;;;;;11.07;7.35;;;22.50;99.90;;;;;;6942200;28;20466;-78
2022/06/22 05:26:36;;;;;;;10.60;7.35;;;22.50;99.90;;;;;;6942813;28;20796;-79
2022/06/22 05:30:05;;;;;;;11.20;7.38;;;22.40;99.90;;;;;;6942976;28;20888;-79
2022/06/22 05:33:29;;;;;;;10.30;7.30;;;22.60;99.90;;;;;;6942951;28;20443;-79
2022/06/22 05:36:57;;;;;;;8.63;6.22;;;22.70;99.90;;;;;;6942802;28;20438;-76
2022/06/22 05:40:22;;;;;;;11.50;7.55;;;22.80;99.90;;;;;;6942744;28;20927;-79
2022/06/22 05:43:46;;;;;;;10.20;6.93;;;22.80;99.90;;;;;;6942746;28;20928;-79
2022/06/22 05:47:16;;;;;;;11.45;7.47;;;22.80;99.90;;;;;;6942456;28;20438;-78
2022/06/22 05:50:44;;;;;;;10.75;7.45;;;22.80;99.90;;;;;;6942421;28;20429;-78
2022/06/22 05:54:13;;;;;;;9.80;6.82;;;22.80;99.90;;;;;;6942146;28;20486;-78
2022/06/22 05:57:43;;;;;;;11.50;7.25;;;22.80;99.90;;;;;;6942189;28;20430;-78
2022/06/22 06:01:15;;;;;;;9.65;7.57;;;22.90;99.90;;;;;;6942039;28;20484;-78
2022/06/22 06:04:43;;;;;;;11.50;8.05;;;22.90;99.90;;;;;;6942784;28;20435;-77
2022/06/22 06:08:12;;;;;;;10.90;8.00;;;22.70;99.90;;;;;;6942509;28;20492;-78
2022/06/22 06:11:40;;;;;;;10.45;7.63;;;22.70;99.90;;;;;;6941712;28;20426;-79
2022/06/22 06:15:04;;;;;;;11.02;7.60;;;22.70;99.90;;;;;;6941770;28;20434;-79
2022/06/22 06:18:31;;;;;;;13.73;8.10;;;22.60;99.90;;;;;;6941721;28;20475;-80
2022/06/22 06:21:57;;;;;;;12.18;8.07;;;22.60;99.90;;;;;;6941582;28;20477;-79
2022/06/22 06:29:12;;;;;;;11.27;8.23;;;22.60;99.90;;;;;;6941320;28;20853;-79
2022/06/22 06:32:45;;;;;;;11.75;8.10;;;22.60;99.90;;;;;;6941173;28;20439;-79
2022/06/22 06:36:16;;;;;;;12.47;8.63;;;22.60;99.90;;;;;;6941200;28;20517;-79
2022/06/22 06:39:46;;;;;;;13.73;8.95;;;22.50;99.90;;;;;;6941139;28;20431;-79
2022/06/22 06:43:28;;;;;;;12.30;8.70;;;22.40;99.90;;;;;;6941285;28;20770;-79
2022/06/22 06:46:53;;;;;;;11.68;8.38;;;22.50;99.90;;;;;;6941096;28;20442;-77
2022/06/22 06:50:22;;;;;;;11.35;7.93;;;22.50;99.90;;;;;;6940937;28;20427;-78
2022/06/22 06:53:49;;;;;;;10.90;7.90;;;22.50;99.90;;;;;;6940810;28;20438;-78
2022/06/22 06:57:17;;;;;;;12.65;8.32;;;22.60;99.90;;;;;;6939268;28;20916;-79
2022/06/22 07:00:42;;;;;;;11.88;8.70;;;22.60;99.90;;;;;;6941038;28;20470;-78
2022/06/22 07:04:11;;;;;;;12.57;9.10;;;22.60;99.90;;;;;;6940858;28;20897;-79
2022/06/22 07:07:42;;;;;;;13.10;9.07;;;22.70;99.90;;;;;;6941129;28;20469;-79
2022/06/22 07:11:13;;;;;;;10.95;8.43;;;22.70;99.90;;;;;;6941105;28;20423;-79
2022/06/22 07:14:40;;;;;;;13.38;8.88;;;22.80;99.90;;;;;;6941492;28;20445;-79
2022/06/22 07:18:18;;;;;;;13.40;8.93;;;23.00;99.90;;;;;;6942260;28;20430;-80
2022/06/22 07:21:46;;;;;;;14.73;8.93;;;23.10;99.90;;;;;;6941350;28;20859;-77
2022/06/22 07:25:17;;;;;;;13.60;9.38;;;23.10;99.90;;;;;;6940882;28;20434;-79
2022/06/22 07:28:45;;;;;;;12.77;9.10;;;23.10;99.90;;;;;;6940686;28;20434;-78
2022/06/22 07:32:17;;;;;;;11.75;8.50;;;23.20;99.90;;;;;;6940670;28;20501;-79
2022/06/22 07:35:46;;;;;;;13.82;8.98;;;23.20;99.90;;;;;;6940848;28;20427;-80
2022/06/22 07:39:19;;;;;;;12.53;8.50;;;23.30;99.90;;;;;;6940490;28;20441;-79
2022/06/22 07:42:42;;;;;;;11.90;8.20;;;23.40;99.90;;;;;;6940468;28;20839;-75
2022/06/22 07:46:07;;;;;;;11.68;8.10;;;23.40;99.90;;;;;;6942432;28;20489;-79
2022/06/22 07:49:33;;;;;;;12.10;8.47;;;23.50;99.90;;;;;;6946573;28;20457;-78
2022/06/22 07:53:04;;;;;;;11.80;8.35;;;23.60;99.90;;;;;;6945774;28;20958;-76
2022/06/22 07:56:37;;;;;;;13.25;8.45;;;23.70;99.90;;;;;;6945244;28;20434;-79
2022/06/22 08:00:07;;;;;;;11.40;8.40;;;23.80;99.90;;;;;;6945705;28;20429;-80
2022/06/22 08:03:35;;;;;;;10.77;7.83;;;23.80;99.90;;;;;;6946202;28;20431;-76
2022/06/22 08:07:03;;;;;;;12.17;8.20;;;23.80;99.90;;;;;;6946040;28;20477;-79
2022/06/22 08:10:34;;;;;;;11.23;8.07;;;23.90;99.90;;;;;;6946530;28;20430;-80
2022/06/22 08:14:02;;;;;;;10.70;7.40;;;23.90;99.90;;;;;;6945164;28;20470;-80
2022/06/22 08:17:49;;;;;;;10.70;7.32;;;23.80;99.90;;;;;;6944924;28;20430;-79
2022/06/22 08:21:15;;;;;;;9.27;7.70;;;24.00;99.90;;;;;;6944808;28;20461;-80
2022/06/22 08:24:43;;;;;;;11.38;7.72;;;24.00;99.90;;;;;;6944375;28;20473;-79
2022/06/22 08:28:06;;;;;;;10.23;7.63;;;24.00;99.90;;;;;;6944671;28;20434;-79
2022/06/22 08:31:32;;;;;;;11.52;8.13;;;24.00;99.90;;;;;;6944588;28;20466;-79
2022/06/22 08:34:57;;;;;;;13.27;7.80;;;24.00;99.90;;;;;;6944652;28;20481;-79
2022/06/22 08:38:25;;;;;;;11.80;7.60;;;23.90;99.90;;;;;;6944279;28;20463;-79
2022/06/22 08:41:56;;;;;;;10.23;7.53;;;23.80;99.90;;;;;;6944393;28;20426;-79
2022/06/22 08:45:45;;;;;;;11.52;7.65;;;23.80;99.90;;;;;;6944449;28;20467;-77
2022/06/22 08:49:31;;;;;;;11.27;7.53;;;23.80;99.90;;;;;;6944221;28;20427;-79
2022/06/22 08:53:20;;;;;;;12.05;7.78;;;23.80;99.90;;;;;;6944043;28;20439;-78
2022/06/22 08:56:52;;;;;;;9.93;7.63;;;23.70;99.90;;;;;;6943809;28;20430;-77
2022/06/22 09:00:20;;;;;;;11.45;8.40;;;23.70;99.90;;;;;;6943788;28;20449;-79
2022/06/22 09:04:12;;;;;;;11.77;8.80;;;23.50;99.90;;;;;;6943812;28;20431;-78
2022/06/22 09:08:26;;;;;;;13.60;9.05;;;23.50;99.90;;;;;;6943427;28;20427;-80
2022/06/22 09:12:04;;;;;;;13.25;9.15;;;23.50;99.90;;;;;;6940501;28;20497;-77
2022/06/22 09:15:39;;;;;;;13.27;8.95;;;23.50;99.90;;;;;;6943637;28;20823;-78
2022/06/22 09:19:30;;;;;;;13.55;9.60;;;23.50;99.90;;;;;;6943728;28;20439;-77
2022/06/22 09:22:57;;;;;;;11.50;8.80;;;23.50;99.90;;;;;;6944992;28;20920;-79
2022/06/22 09:26:36;;;;;;;11.50;8.52;;;23.60;99.90;;;;;;6944557;28;20546;-79
2022/06/22 09:30:13;;;;;;;12.50;8.67;;;23.60;99.90;;;;;;6966280;28;20427;-80
2022/06/22 09:34:11;;;;;;;11.43;8.48;;;23.50;99.90;;;;;;6947709;28;20446;-79
2022/06/22 09:38:09;;;;;;;11.77;8.30;;;23.60;99.90;;;;;;6946100;28;20458;-78
2022/06/22 09:41:49;;;;;;;10.93;8.75;;;23.60;99.90;;;;;;6941059;28;20481;-79
2022/06/22 09:45:36;;;;;;;12.93;9.00;;;23.50;99.90;;;;;;6943742;28;20461;-80
2022/06/22 09:49:40;;;;;;;12.18;8.30;;;23.50;99.90;;;;;;6942785;28;20466;-80
2022/06/22 09:53:48;;;;;;;12.20;8.23;;;23.40;99.90;;;;;;6919944;28;20469;-80
2022/06/22 09:57:32;;;;;;;12.45;8.40;;;23.40;99.90;;;;;;6940612;28;20435;-77
2022/06/22 10:01:01;;;;;;;12.23;8.63;;;23.40;99.90;;;;;;6942216;28;20426;-79
2022/06/22 10:05:12;;;;;;;13.83;8.63;;;23.40;99.90;;;;;;6941946;28;20517;-79
2022/06/22 10:08:59;;;;;;;11.45;8.60;;;23.50;99.90;;;;;;6941365;28;20438;-79
2022/06/22 10:13:13;;;;;;;13.47;8.57;;;23.50;99.90;;;;;;6942124;28;20473;-78
2022/06/22 10:16:50;;;;;;;13.35;9.00;;;23.60;99.90;;;;;;6921585;28;20427;-78
2022/06/22 10:20:45;;;;;;;11.68;8.32;;;23.60;99.90;;;;;;6944889;28;20473;-78
2022/06/22 10:24:31;;;;;;;14.00;8.27;;;23.60;99.90;;;;;;6943382;28;20466;-79
2022/06/22 10:28:12;;;;;;;12.38;7.93;;;23.60;99.90;;;;;;6941528;28;20478;-79
2022/06/22 10:31:50;;;;;;;12.60;8.25;;;23.60;99.90;;;;;;6941495;28;20478;-78
2022/06/22 10:35:30;;;;;;;12.53;8.23;;;23.50;99.90;;;;;;6941735;28;20524;-78
2022/06/22 10:39:17;;;;;;;15.17;9.00;;;23.50;99.90;;;;;;6941372;28;20903;-79
2022/06/22 10:46:45;;;;;;;13.18;8.68;;;23.40;99.90;;;;;;6942054;28;20427;-78
2022/06/22 10:50:23;;;;;;;13.43;8.50;;;23.40;99.90;;;;;;6942292;28;20466;-77
2022/06/22 10:54:36;;;;;;;12.10;8.48;;;23.30;99.90;;;;;;6941639;28;20916;-79
2022/06/22 10:58:22;;;;;;;13.73;8.68;;;23.30;99.90;;;;;;6940956;28;20454;-79
2022/06/22 11:02:10;;;;;;;13.80;8.47;;;23.40;99.90;;;;;;6941095;28;20427;-80
2022/06/22 11:05:49;;;;;;;11.90;8.23;;;23.40;99.90;;;;;;6941128;28;20473;-80
2022/06/22 11:09:51;;;;;;;12.10;8.73;;;23.40;99.90;;;;;;6941206;28;20521;-79
2022/06/22 11:13:52;;;;;;;12.02;8.40;;;23.40;99.90;;;;;;6940811;28;20439;-79
2022/06/22 11:17:39;;;;;;;12.57;8.73;;;23.40;99.90;;;;;;6940922;28;20426;-78
2022/06/22 11:21:14;;;;;;;23.55;9.88;;;23.50;99.90;;;;;;6942783;28;20438;-79
2022/06/22 11:24:59;;;;;;;14.45;8.95;;;23.40;99.90;;;;;;6946010;28;20477;-78
2022/06/22 11:32:39;;;;;;;12.07;8.30;;;23.40;99.90;;;;;;6946139;28;20419;-79
2022/06/22 11:36:15;;;;;;;11.00;8.02;;;23.50;99.90;;;;;;6946142;28;20441;-79
2022/06/22 11:40:03;;;;;;;9.82;6.32;;;23.50;99.90;;;;;;6945907;28;20986;-79
2022/06/22 11:44:08;;;;;;;9.85;5.18;;;23.50;99.90;;;;;;6945817;28;20431;-78
2022/06/22 11:47:46;;;;;;;9.38;4.90;;;23.40;99.90;;;;;;6945604;28;20462;-80
2022/06/22 11:51:23;;;;;;;8.68;4.68;;;23.40;99.90;;;;;;6945676;28;20431;-79
2022/06/22 11:55:00;;;;;;;11.63;4.38;;;23.40;99.90;;;;;;6945384;28;20483;-78
2022/06/22 11:59:05;;;;;;;10.15;4.25;;;23.50;99.90;;;;;;6945511;28;20451;-79
2022/06/22 12:02:50;;;;;;;11.07;4.80;;;23.60;99.90;;;;;;6925559;28;20442;-77
2022/06/22 12:06:47;;;;;;;8.40;4.10;;;23.60;99.90;;;;;;6945304;28;20503;-78
2022/06/22 12:10:33;;;;;;;10.20;4.00;;;23.70;99.90;;;;;;6945139;28;20473;-79
2022/06/22 12:18:21;;;;;;;11.15;4.10;;;23.70;99.90;;;;;;6945074;28;20427;-79
2022/06/22 12:22:07;;;;;;;7.82;4.00;;;23.70;99.90;;;;;;6945078;28;20431;-79
2022/06/22 12:26:05;;;;;;;9.73;4.10;;;23.70;99.90;;;;;;6944541;28;20430;-79
2022/06/22 12:29:56;;;;;;;9.55;3.90;;;23.70;99.90;;;;;;6944651;28;20426;-78
2022/06/22 12:33:26;;;;;;;7.90;3.53;;;23.70;99.90;;;;;;6943943;28;20481;-77
2022/06/22 12:36:53;;;;;;;9.52;3.50;;;23.80;99.90;;;;;;6944569;28;20434;-80
2022/06/22 12:40:23;;;;;;;8.73;3.60;;;23.90;99.90;;;;;;6944675;28;20434;-78
2022/06/22 12:44:13;;;;;;;11.70;3.78;;;24.10;99.90;;;;;;6944239;28;20427;-78
2022/06/22 12:47:54;;;;;;;14.77;7.07;;;24.20;99.90;;;;;;6944135;28;20442;-80
2022/06/22 12:51:23;;;;;;;12.65;5.63;;;24.40;99.90;;;;;;6944205;28;20434;-79
2022/06/22 12:54:52;;;;;;;13.02;5.78;;;24.40;99.90;;;;;;6944168;28;20443;-79
2022/06/22 12:58:22;;;;;;;10.10;3.67;;;24.60;99.90;;;;;;6943889;28;20470;-78
2022/06/22 13:01:45;;;;;;;9.98;3.95;;;24.60;99.90;;;;;;6943718;28;20431;-77
2022/06/22 13:05:14;;;;;;;7.97;3.33;;;24.60;99.90;;;;;;6943679;28;20930;-80
2022/06/22 13:08:37;;;;;;;7.23;3.30;;;24.70;99.90;;;;;;6943715;28;20435;-78
2022/06/22 13:12:05;;;;;;;9.95;3.55;;;24.70;99.90;;;;;;6943822;28;20450;-77
2022/06/22 13:15:31;;;;;;;8.10;3.35;;;24.70;99.90;;;;;;6943403;28;20442;-78
2022/06/22 13:19:03;;;;;;;7.95;3.22;;;24.80;99.90;;;;;;6943219;28;20431;-80
2022/06/22 13:22:33;;;;;;;10.02;3.40;;;24.90;99.90;;;;;;6943460;28;20431;-79
2022/06/22 13:26:04;;;;;;;9.00;3.30;;;24.90;99.90;;;;;;6942796;28;20891;-79
2022/06/22 13:29:34;;;;;;;10.80;3.47;;;25.00;99.90;;;;;;6943209;28;20427;-79
2022/06/22 13:33:14;;;;;;;8.32;3.28;;;25.00;99.60;;;;;;6941590;28;20442;-80
2022/06/22 13:36:47;;;;;;;9.30;3.60;;;24.90;99.20;;;;;;6939285;28;20470;-77
2022/06/22 13:40:26;;;;;;;10.70;3.33;;;24.80;99.90;;;;;;6940096;28;20437;-77
2022/06/22 13:44:07;;;;;;;8.85;3.22;;;25.00;99.10;;;;;;6939628;28;20546;-79
2022/06/22 13:48:19;;;;;;;9.55;3.58;;;25.20;98.60;;;;;;6940727;28;20546;-78
2022/06/22 13:51:58;;;;;;;10.05;3.22;;;25.30;98.40;;;;;;6905321;28;20578;-78
2022/06/22 13:55:42;;;;;;;10.52;3.35;;;25.50;98.60;;;;;;6945734;28;20804;-78
2022/06/22 13:59:14;;;;;;;11.35;3.67;;;25.60;98.00;;;;;;6942629;28;20427;-75
2022/06/22 14:02:58;;;;;;;10.52;3.42;;;25.60;98.30;;;;;;6941724;28;20746;-78
2022/06/22 14:06:26;;;;;;;11.07;3.67;;;25.70;98.30;;;;;;6940058;28;20435;-77
2022/06/22 14:10:00;;;;;;;10.23;3.85;;;25.90;97.80;;;;;;6938338;28;20943;-79
2022/06/22 14:13:36;;;;;;;13.20;4.03;;;25.80;98.30;;;;;;6939901;28;20430;-78
2022/06/22 14:17:07;;;;;;;11.60;3.63;;;25.90;99.00;;;;;;6944966;28;20439;-79
2022/06/22 14:20:39;;;;;;;9.90;3.80;;;26.00;98.60;;;;;;6938738;28;20442;-78
2022/06/22 14:24:15;;;;;;;9.20;3.60;;;26.00;98.60;;;;;;6927615;28;20461;-78
2022/06/22 14:27:51;;;;;;;10.00;3.60;;;25.90;99.10;;;;;;6936880;28;20494;-78
2022/06/22 14:31:22;;;;;;;9.82;3.60;;;25.90;98.90;;;;;;6937555;28;20434;-78
2022/06/22 14:35:12;;;;;;;11.93;3.53;;;25.90;98.80;;;;;;6937022;28;20485;-79
2022/06/22 14:38:47;;;;;;;10.38;3.63;;;25.90;97.60;;;;;;6939909;28;20435;-79
2022/06/22 14:42:20;;;;;;;12.50;3.70;;;25.70;98.70;;;;;;6941432;28;20510;-78
2022/06/22 14:45:47;;;;;;;11.70;3.70;;;25.80;99.00;;;;;;6936787;28;21140;-79
2022/06/22 14:49:22;;;;;;;8.57;3.28;;;25.70;97.70;;;;;;6940091;28;20431;-79
2022/06/22 14:52:52;;;;;;;9.68;3.08;;;25.60;97.30;;;;;;6936667;28;20447;-79
2022/06/22 14:56:23;;;;;;;11.20;3.65;;;25.40;98.00;;;;;;6939903;28;20477;-78
2022/06/22 15:00:10;;;;;;;10.32;3.80;;;25.40;98.40;;;;;;6924924;28;20516;-80
2022/06/22 15:03:47;;;;;;;11.25;3.88;;;25.50;98.40;;;;;;6941545;28;20474;-79
2022/06/22 15:07:22;;;;;;;9.95;3.85;;;25.40;98.70;;;;;;6939010;28;20463;-79
2022/06/22 15:10:48;;;;;;;9.15;3.80;;;25.40;98.90;;;;;;6924839;28;20481;-77
2022/06/22 15:14:16;;;;;;;9.90;3.63;;;25.40;99.20;;;;;;6939526;28;20956;-78
2022/06/22 15:17:45;;;;;;;10.93;3.22;;;25.30;99.10;;;;;;6939167;28;20435;-80
2022/06/22 15:26:11;;;;;;;11.70;3.50;;;25.20;99.70;;;;;;6866544;28;20471;-78
2022/06/22 15:29:46;;;;;;;13.70;3.67;;;25.10;99.80;;;;;;6936963;28;20435;-80
2022/06/22 15:33:17;;;;;;;10.40;3.60;;;25.20;99.60;;;;;;6938822;28;20435;-80
2022/06/22 15:36:46;;;;;;;10.68;3.65;;;25.20;99.70;;;;;;6936644;28;20478;-79
2022/06/22 15:40:35;;;;;;;10.67;3.30;;;25.20;99.60;;;;;;6937794;28;20474;-78
2022/06/22 15:44:16;;;;;;;10.55;3.30;;;25.20;99.90;;;;;;6932983;28;20473;-80
2022/06/22 15:47:45;;;;;;;10.40;3.50;;;25.20;99.90;;;;;;6936267;28;21093;-78
2022/06/22 15:51:22;;;;;;;10.82;3.50;;;25.20;99.90;;;;;;6943346;28;20466;-79
2022/06/22 15:54:57;;;;;;;10.63;3.20;;;25.20;99.90;;;;;;6937664;28;20458;-79
2022/06/22 15:58:24;;;;;;;11.90;3.60;;;25.10;99.90;;;;;;6936658;28;21042;-78
2022/06/22 16:01:53;;;;;;;12.37;3.60;;;25.10;99.90;;;;;;6936815;28;20446;-77
2022/06/22 16:05:38;;;;;;;11.70;3.90;;;25.10;99.00;;;;;;6932484;28;20442;-77
2022/06/22 16:09:07;;;;;;;12.65;3.72;;;25.20;99.90;;;;;;6937714;28;20473;-79
2022/06/22 16:16:22;;;;;;;12.85;3.80;;;25.30;99.90;;;;;;6939298;28;20517;-78
2022/06/22 16:19:54;;;;;;;11.65;3.42;;;25.40;99.50;;;;;;6931861;28;20481;-78
2022/06/22 16:23:23;;;;;;;11.50;3.80;;;25.40;99.60;;;;;;6935994;28;20470;-79
2022/06/22 16:26:51;;;;;;;9.03;3.20;;;25.40;99.60;;;;;;6938792;28;20442;-79
2022/06/22 16:30:16;;;;;;;10.77;3.55;;;25.40;99.90;;;;;;6936985;28;20442;-78
2022/06/22 16:33:55;;;;;;;8.95;3.40;;;25.30;99.90;;;;;;6914473;28;20479;-79
2022/06/22 16:37:30;;;;;;;10.45;3.92;;;25.30;99.90;;;;;;6934153;28;20438;-79
2022/06/22 16:41:00;;;;;;;12.02;3.47;;;25.30;99.90;;;;;;6939618;28;20439;-79
2022/06/22 16:44:31;;;;;;;10.43;4.35;;;25.30;99.90;;;;;;6939149;28;20445;-79
2022/06/22 16:47:59;;;;;;;10.70;3.70;;;25.40;99.90;;;;;;6933906;28;20436;-80
2022/06/22 16:51:27;;;;;;;10.65;3.55;;;25.30;99.90;;;;;;6928237;28;20837;-78
2022/06/22 16:54:52;;;;;;;12.50;4.22;;;25.30;99.90;;;;;;6934737;28;20470;-80
2022/06/22 16:58:27;;;;;;;11.88;3.63;;;25.30;99.90;;;;;;6935420;28;20462;-77
2022/06/22 17:01:57;;;;;;;13.57;3.97;;;25.00;99.90;;;;;;6927835;28;20895;-79
2022/06/22 17:05:36;;;;;;;11.25;3.42;;;24.60;99.90;;;;;;6940258;28;20931;-78
2022/06/22 17:09:06;;;;;;;12.05;3.90;;;24.80;99.90;;;;;;6939209;28;20512;-81
2022/06/22 17:12:35;;;;;;;10.13;3.67;;;24.90;99.90;;;;;;6935478;28;20443;-79
2022/06/22 17:16:07;;;;;;;12.65;3.88;;;25.00;99.90;;;;;;6936094;28;20449;-79
2022/06/22 17:19:36;;;;;;;10.68;3.85;;;24.90;99.90;;;;;;6936032;28;20540;-78
2022/06/22 17:23:12;;;;;;;13.88;4.10;;;24.80;99.90;;;;;;6939215;28;20489;-79
2022/06/22 17:26:42;;;;;;;15.10;6.40;;;24.90;99.90;;;;;;6938450;28;20924;-77
2022/06/22 17:30:09;;;;;;;13.20;5.82;;;24.90;99.90;;;;;;6941514;28;20437;-78
2022/06/22 17:33:38;;;;;;;14.50;5.57;;;24.90;99.90;;;;;;6938962;28;20959;-80
2022/06/22 17:37:16;;;;;;;12.03;4.67;;;24.90;99.90;;;;;;6937397;28;20494;-79
2022/06/22 17:40:54;;;;;;;14.55;4.13;;;25.00;99.90;;;;;;6931255;28;20773;-78
2022/06/22 17:44:30;;;;;;;13.30;4.00;;;25.00;99.90;;;;;;6928183;28;20809;-78
2022/06/22 17:48:01;;;;;;;12.80;4.20;;;25.00;99.90;;;;;;6937748;28;20435;-79
2022/06/22 17:51:44;;;;;;;11.40;4.00;;;24.80;99.90;;;;;;6938290;28;20489;-77
2022/06/22 17:55:18;;;;;;;12.68;4.57;;;24.60;99.90;;;;;;6938300;28;20450;-78
2022/06/22 17:58:45;;;;;;;11.60;4.30;;;24.60;99.90;;;;;;6935595;28;20473;-79
2022/06/22 18:02:19;;;;;;;11.30;4.55;;;24.50;99.90;;;;;;6937077;28;20442;-78
2022/06/22 18:05:51;;;;;;;10.80;4.38;;;24.60;99.90;;;;;;6931889;28;20792;-79
2022/06/22 18:09:19;;;;;;;12.18;4.80;;;24.60;99.90;;;;;;6937327;28;20431;-80
2022/06/22 18:12:48;;;;;;;13.65;4.90;;;24.60;99.90;;;;;;6938557;28;20447;-83
2022/06/22 18:16:15;;;;;;;10.88;4.50;;;24.40;99.90;;;;;;6922745;28;20912;-82
2022/06/22 18:19:43;;;;;;;11.95;5.00;;;24.50;99.90;;;;;;6938639;28;20916;-82
2022/06/22 18:23:14;;;;;;;12.48;5.20;;;24.50;99.90;;;;;;6933961;28;20493;-81
2022/06/22 18:26:45;;;;;;;13.40;5.65;;;24.50;99.90;;;;;;6921590;28;20446;-84
2022/06/22 18:30:16;;;;;;;14.48;5.88;;;24.40;99.90;;;;;;6937951;28;20439;-85
2022/06/22 18:33:45;;;;;;;17.30;7.05;;;24.40;99.90;;;;;;6931716;28;20542;-82
2022/06/22 18:37:17;;;;;;;15.20;5.97;;;24.30;99.90;;;;;;6934625;28;20474;-84
2022/06/22 18:44:33;;;;;;;12.73;4.80;;;24.20;99.90;;;;;;6947751;28;20865;-80
2022/06/22 18:48:02;;;;;;;13.13;5.30;;;24.20;99.90;;;;;;6936462;28;20517;-80
2022/06/22 18:51:30;;;;;;;11.47;4.83;;;24.20;99.90;;;;;;6937495;28;20442;-81
2022/06/22 18:54:58;;;;;;;12.33;4.73;;;24.10;99.90;;;;;;6936938;28;20545;-83
2022/06/22 18:58:24;;;;;;;12.23;4.82;;;24.10;99.90;;;;;;6937051;28;20435;-81